Terminal Aerodrome Forecast
Issued by NWS

Home | Current Version | Previous Version | Text Only | Print | Product List | Glossary On
Versions: 1 2 3 4 5 6 7 8 9 10 11 12 13 14 15 16 17 18 19 20 21 22 23 24 25 26
000
FTUS42 KFFC 221135
TAFPDK
TAF
KPDK 221135Z 2212/2312 08008KT 2SM -DZ BR OVC005
     FM221500 09008KT 5SM -DZ BR OVC007
     FM230000 09011KT 5SM -DZ BR OVC004 PROB30 2308/2312 1SM -RA BR
      OVC004=

USA.gov is the U.S. government's official web portal to all federal, state and local government web resources and services.